createdAt,value
2023-01-30T00:00:45.601Z,99225.88
2023-01-30T00:01:47.679Z,99232.75
2023-01-30T00:02:49.411Z,99238.78
2023-01-30T00:03:51.178Z,99233.25
2023-01-30T00:04:52.911Z,99234.59
2023-01-30T00:05:54.888Z,99237.66
2023-01-30T00:06:56.647Z,99224.22
2023-01-30T00:07:58.367Z,99234.06
2023-01-30T00:09:00.318Z,99215.75
2023-01-30T00:10:02.153Z,99234.06
2023-01-30T00:11:08.919Z,99231.16
2023-01-30T00:12:10.660Z,99214.31
2023-01-30T00:13:14.727Z,99225.28
2023-01-30T00:14:16.469Z,99232.81
2023-01-30T00:15:18.363Z,99227.88
2023-01-30T00:16:20.129Z,99231.31
2023-01-30T00:17:21.929Z,99225.13
2023-01-30T00:18:23.691Z,99231.34
2023-01-30T00:19:25.419Z,99218.09
2023-01-30T00:20:27.144Z,99215.13
2023-01-30T00:21:29.004Z,99223.34
2023-01-30T00:22:31.160Z,99220.19
2023-01-30T00:23:34.482Z,99224.31
2023-01-30T00:24:36.272Z,99223.06
2023-01-30T00:25:38.138Z,99223.41
2023-01-30T00:26:40.014Z,99224.72
2023-01-30T00:27:41.824Z,99219.44
2023-01-30T00:28:43.566Z,99223.69
2023-01-30T00:29:54.384Z,99224.03
2023-01-30T00:31:03.247Z,99213.88
2023-01-30T00:32:05.113Z,99225.00
2023-01-30T00:33:06.802Z,99218.97
2023-01-30T00:34:08.636Z,99232.56
2023-01-30T00:35:10.423Z,99226.28
2023-01-30T00:36:13.575Z,99223.81
2023-01-30T00:37:15.267Z,99227.09
2023-01-30T00:38:17.805Z,99228.91
2023-01-30T00:39:19.504Z,99226.63
2023-01-30T00:40:21.202Z,99217.41
2023-01-30T00:41:22.904Z,99232.28
2023-01-30T00:42:43.331Z,99221.47
2023-01-30T00:44:03.836Z,99226.63
2023-01-30T00:45:24.360Z,99227.91
2023-01-30T00:46:52.271Z,99229.91
2023-01-30T00:47:54.029Z,99225.38
2023-01-30T00:48:55.758Z,99225.38
2023-01-30T00:49:57.445Z,99218.50
2023-01-30T00:50:59.224Z,99220.50
2023-01-30T00:52:01.325Z,99223.88
2023-01-30T00:53:03.011Z,99215.75
2023-01-30T00:54:04.740Z,99212.53
2023-01-30T00:55:07.003Z,99203.34
2023-01-30T00:56:08.735Z,99216.63
2023-01-30T00:57:10.441Z,99214.53
2023-01-30T00:58:13.588Z,99215.84
2023-01-30T00:59:15.366Z,99211.44
2023-01-30T01:00:18.168Z,99214.88
2023-01-30T01:01:19.931Z,99214.88
2023-01-30T01:02:21.776Z,99212.13
2023-01-30T01:03:23.712Z,99221.06
2023-01-30T01:04:25.623Z,99216.50
2023-01-30T01:05:28.644Z,99207.16
2023-01-30T01:06:30.550Z,99211.94
2023-01-30T01:07:32.240Z,99211.09
2023-01-30T01:08:33.970Z,99213.63
2023-01-30T01:09:35.706Z,99207.44
2023-01-30T01:10:37.931Z,99220.06
2023-01-30T01:11:39.767Z,99217.88
2023-01-30T01:12:41.477Z,99203.16
2023-01-30T01:13:43.219Z,99217.28
2023-01-30T01:14:44.961Z,99211.03
2023-01-30T01:15:46.957Z,99213.78
2023-01-30T01:16:48.765Z,99201.75
2023-01-30T01:17:50.836Z,99210.06
2023-01-30T01:18:52.693Z,99204.16
2023-01-30T01:19:54.422Z,99193.09
2023-01-30T01:20:56.119Z,99183.28
2023-01-30T01:21:57.804Z,99198.88
2023-01-30T01:22:59.492Z,99195.88
2023-01-30T01:24:01.267Z,99196.41
2023-01-30T01:25:03.443Z,99193.13
2023-01-30T01:26:05.416Z,99200.00
2023-01-30T01:27:07.116Z,99190.63
2023-01-30T01:28:09.238Z,99199.47
2023-01-30T01:29:15.336Z,99200.97
2023-01-30T01:30:17.732Z,99193.53
2023-01-30T01:31:19.575Z,99196.28
2023-01-30T01:32:22.235Z,99193.00
2023-01-30T01:33:28.014Z,99188.63
2023-01-30T01:34:29.808Z,99184.47
2023-01-30T01:35:31.521Z,99192.59
2023-01-30T01:36:52.739Z,99178.69
2023-01-30T01:37:55.487Z,99192.09
2023-01-30T01:38:57.224Z,99183.59
2023-01-30T01:40:17.375Z,99184.03
2023-01-30T01:41:19.102Z,99186.69
2023-01-30T01:42:20.791Z,99178.69
2023-01-30T01:43:25.349Z,99187.84
2023-01-30T01:44:27.070Z,99188.81
2023-01-30T01:45:29.673Z,99188.81
2023-01-30T01:46:46.014Z,99191.09
2023-01-30T01:47:56.822Z,99184.72
2023-01-30T01:49:01.921Z,99186.06
2023-01-30T01:50:05.570Z,99191.78
2023-01-30T01:51:16.350Z,99182.16
2023-01-30T01:52:18.180Z,99170.63
2023-01-30T01:53:24.884Z,99163.81
2023-01-30T01:54:40.400Z,99189.63
2023-01-30T01:55:45.074Z,99185.00
2023-01-30T01:56:49.250Z,99173.56
2023-01-30T01:57:56.598Z,99188.28
2023-01-30T01:59:10.567Z,99183.38
2023-01-30T02:00:15.607Z,99191.88
2023-01-30T02:01:17.363Z,99189.69
2023-01-30T02:02:20.230Z,99179.06
2023-01-30T02:03:25.388Z,99191.88
2023-01-30T02:04:47.543Z,99187.47
2023-01-30T02:05:53.138Z,99188.06
2023-01-30T02:06:54.838Z,99188.38
2023-01-30T02:08:05.746Z,99200.13
2023-01-30T02:09:10.310Z,99189.56
2023-01-30T02:10:22.442Z,99184.66
2023-01-30T02:11:34.956Z,99172.75
2023-01-30T02:12:38.311Z,99173.56
2023-01-30T02:13:40.497Z,99193.22
2023-01-30T02:14:44.073Z,99182.41
2023-01-30T02:15:46.250Z,99188.00
2023-01-30T02:16:48.030Z,99189.13
2023-01-30T02:17:49.887Z,99176.50
2023-01-30T02:18:52.679Z,99179.78
2023-01-30T02:20:33.031Z,99191.06
2023-01-30T02:22:02.170Z,99178.78
2023-01-30T02:23:38.502Z,99180.41
2023-01-30T02:25:18.529Z,99186.75
2023-01-30T02:26:36.795Z,99182.66
2023-01-30T02:28:00.123Z,99178.19
2023-01-30T02:29:29.386Z,99178.69
2023-01-30T02:30:56.764Z,99179.97
2023-01-30T02:32:13.778Z,99172.16
2023-01-30T02:33:27.541Z,99188.31
2023-01-30T02:35:04.215Z,99178.34
2023-01-30T02:36:27.632Z,99179.38
2023-01-30T02:37:47.382Z,99181.69
2023-01-30T02:39:07.372Z,99188.97
2023-01-30T02:40:12.082Z,99180.81
2023-01-30T02:41:57.544Z,99172.16
2023-01-30T02:43:20.827Z,99172.00
2023-01-30T02:44:30.491Z,99176.41
2023-01-30T02:45:57.357Z,99167.81
2023-01-30T02:47:15.636Z,99164.56
2023-01-30T02:48:25.233Z,99172.59
2023-01-30T02:49:36.464Z,99167.22
2023-01-30T02:50:47.566Z,99164.91
2023-01-30T02:51:50.807Z,99170.56
2023-01-30T02:52:53.239Z,99168.78
2023-01-30T02:53:55.482Z,99172.22
2023-01-30T02:54:57.183Z,99172.88
2023-01-30T02:55:58.920Z,99176.84
2023-01-30T02:57:00.823Z,99177.47
2023-01-30T02:58:04.787Z,99175.50
2023-01-30T02:59:07.122Z,99175.41
2023-01-30T03:00:10.142Z,99179.38
2023-01-30T03:01:14.723Z,99183.63
2023-01-30T03:02:22.371Z,99183.75
2023-01-30T03:03:29.935Z,99182.94
2023-01-30T03:04:50.138Z,99182.66
2023-01-30T03:06:16.245Z,99173.72
2023-01-30T03:07:27.956Z,99176.47
2023-01-30T03:08:55.742Z,99173.84
2023-01-30T03:10:09.156Z,99171.69
2023-01-30T03:11:11.578Z,99169.91
2023-01-30T03:12:25.214Z,99168.25
2023-01-30T03:13:38.181Z,99167.16
2023-01-30T03:14:47.846Z,99176.91
2023-01-30T03:16:18.591Z,99160.75
2023-01-30T03:17:23.827Z,99169.22
2023-01-30T03:18:25.743Z,99162.47
2023-01-30T03:19:29.905Z,99162.16
2023-01-30T03:20:36.709Z,99166.56
2023-01-30T03:21:45.327Z,99171.63
2023-01-30T03:22:47.639Z,99164.25
2023-01-30T03:23:49.365Z,99153.00
2023-01-30T03:24:53.661Z,99159.72
2023-01-30T03:25:55.415Z,99158.06
2023-01-30T03:27:04.015Z,99144.00
2023-01-30T03:28:07.185Z,99152.03
2023-01-30T03:29:08.937Z,99154.94
2023-01-30T03:30:11.345Z,99144.81
2023-01-30T03:31:13.159Z,99149.28
2023-01-30T03:32:14.885Z,99140.78
2023-01-30T03:33:16.591Z,99130.50
2023-01-30T03:34:18.306Z,99149.94
2023-01-30T03:35:20.355Z,99140.50
2023-01-30T03:36:22.167Z,99145.69
2023-01-30T03:37:23.933Z,99142.22
2023-01-30T03:38:25.748Z,99136.69
2023-01-30T03:39:27.620Z,99112.97
2023-01-30T03:40:29.703Z,99137.22
2023-01-30T03:41:31.793Z,99143.78
2023-01-30T03:42:33.537Z,99142.13
2023-01-30T03:43:35.305Z,99142.94
2023-01-30T03:44:37.068Z,99138.84
2023-01-30T03:45:38.797Z,99143.78
2023-01-30T03:46:40.476Z,99146.66
2023-01-30T03:47:42.181Z,99139.91
2023-01-30T03:48:43.938Z,99139.91
2023-01-30T03:49:45.653Z,99141.84
2023-01-30T03:50:47.756Z,99145.41
2023-01-30T03:51:49.454Z,99150.34
2023-01-30T03:52:51.158Z,99130.72
2023-01-30T03:53:52.927Z,99146.38
2023-01-30T03:54:54.658Z,99128.72
2023-01-30T03:55:56.368Z,99148.16
2023-01-30T03:56:58.116Z,99139.81
2023-01-30T03:57:59.827Z,99142.72
2023-01-30T03:59:01.585Z,99146.00
2023-01-30T04:00:04.944Z,99139.75
2023-01-30T04:01:06.819Z,99146.81
2023-01-30T04:02:08.872Z,99146.66
2023-01-30T04:03:10.658Z,99144.88
2023-01-30T04:04:12.361Z,99140.56
2023-01-30T04:05:14.207Z,99145.78
2023-01-30T04:06:15.957Z,99139.16
2023-01-30T04:07:17.931Z,99137.31
2023-01-30T04:08:19.657Z,99132.66
2023-01-30T04:09:21.356Z,99132.53
2023-01-30T04:10:23.089Z,99140.72
2023-01-30T04:11:24.791Z,99141.41
2023-01-30T04:12:26.498Z,99142.38
2023-01-30T04:13:28.191Z,99138.94
2023-01-30T04:14:29.912Z,99142.06
2023-01-30T04:15:31.641Z,99145.25
2023-01-30T04:16:33.378Z,99134.16
2023-01-30T04:17:35.079Z,99132.31
2023-01-30T04:18:36.786Z,99136.78
2023-01-30T04:19:38.575Z,99133.34
2023-01-30T04:20:40.320Z,99134.31
2023-01-30T04:21:42.088Z,99142.13
2023-01-30T04:22:43.840Z,99145.78
2023-01-30T04:23:45.752Z,99140.56
2023-01-30T04:24:47.474Z,99135.88
2023-01-30T04:25:49.194Z,99141.78
2023-01-30T04:26:50.911Z,99140.66
2023-01-30T04:27:52.688Z,99129.56
2023-01-30T04:28:54.420Z,99110.28
2023-01-30T04:29:56.119Z,99146.91
2023-01-30T04:30:57.912Z,99135.75
2023-01-30T04:31:59.707Z,99135.00
2023-01-30T04:33:01.494Z,99143.34
2023-01-30T04:34:03.184Z,99132.53
2023-01-30T04:35:05.422Z,99147.19
2023-01-30T04:36:09.511Z,99141.25
2023-01-30T04:37:12.544Z,99135.75
2023-01-30T04:38:14.245Z,99135.06
2023-01-30T04:39:16.015Z,99130.53
2023-01-30T04:40:17.944Z,99128.91
2023-01-30T04:41:19.739Z,99135.50
2023-01-30T04:42:21.524Z,99128.59
2023-01-30T04:43:25.218Z,99134.03
2023-01-30T04:44:27.043Z,99137.00
2023-01-30T04:45:29.352Z,99140.72
2023-01-30T04:46:31.938Z,99135.97
2023-01-30T04:47:33.691Z,99135.22
2023-01-30T04:48:35.442Z,99129.03
2023-01-30T04:49:37.154Z,99101.84
2023-01-30T04:50:40.215Z,99142.28
2023-01-30T04:51:41.989Z,99144.53
2023-01-30T04:52:43.707Z,99134.09
2023-01-30T04:53:45.442Z,99132.75
2023-01-30T04:54:47.140Z,99138.25
2023-01-30T04:55:49.286Z,99130.28
2023-01-30T04:56:51.020Z,99130.81
2023-01-30T04:57:52.745Z,99141.63
2023-01-30T04:58:54.468Z,99133.81
2023-01-30T04:59:56.166Z,99134.09
2023-01-30T05:01:16.330Z,99126.03
2023-01-30T05:02:20.170Z,99120.91
2023-01-30T05:03:22.655Z,99126.50
2023-01-30T05:04:24.478Z,99127.34
2023-01-30T05:05:27.494Z,99123.38
2023-01-30T05:06:30.575Z,99126.22
2023-01-30T05:07:32.302Z,99126.22
2023-01-30T05:08:34.038Z,99121.16
2023-01-30T05:09:35.758Z,99131.13
2023-01-30T05:10:37.499Z,99119.38
2023-01-30T05:11:39.245Z,99136.41
2023-01-30T05:12:40.965Z,99122.19
2023-01-30T05:13:44.578Z,99143.25
2023-01-30T05:14:47.027Z,99133.66
2023-01-30T05:15:48.715Z,99134.25
2023-01-30T05:16:50.464Z,99127.72
2023-01-30T05:17:52.168Z,99134.78
2023-01-30T05:18:53.944Z,99111.34
2023-01-30T05:19:55.724Z,99139.69
2023-01-30T05:21:08.487Z,99135.59
2023-01-30T05:22:10.262Z,99136.94
2023-01-30T05:23:12.058Z,99146.53
2023-01-30T05:24:13.812Z,99141.34
2023-01-30T05:25:15.773Z,99130.53
2023-01-30T05:26:17.628Z,99119.78
2023-01-30T05:27:19.397Z,99136.56
2023-01-30T05:28:21.098Z,99124.34
2023-01-30T05:29:22.943Z,99099.41
2023-01-30T05:30:24.684Z,99131.88
2023-01-30T05:31:26.588Z,99130.75
2023-01-30T05:32:30.608Z,99131.72
2023-01-30T05:33:32.986Z,99122.28
2023-01-30T05:34:34.733Z,99129.78
2023-01-30T05:35:36.411Z,99129.63
2023-01-30T05:36:38.345Z,99133.38
2023-01-30T05:37:40.053Z,99122.56
2023-01-30T05:38:43.896Z,99129.78
2023-01-30T05:39:45.593Z,99130.91
2023-01-30T05:40:47.276Z,99118.59
2023-01-30T05:41:48.971Z,99132.41
2023-01-30T05:42:50.663Z,99136.13
2023-01-30T05:43:52.442Z,99136.94
2023-01-30T05:44:54.189Z,99129.69
2023-01-30T05:45:57.345Z,99137.63
2023-01-30T05:46:59.117Z,99132.41
2023-01-30T05:48:01.533Z,99140.03
2023-01-30T05:49:04.447Z,99133.88
2023-01-30T05:50:06.391Z,99131.72
2023-01-30T05:51:16.777Z,99117.28
2023-01-30T05:52:18.543Z,99126.41
2023-01-30T05:53:22.461Z,99124.00
2023-01-30T05:54:24.566Z,99125.47
2023-01-30T05:55:26.330Z,99127.91
2023-01-30T05:56:28.092Z,99133.38
2023-01-30T05:57:29.804Z,99133.66
2023-01-30T05:58:32.683Z,99130.63
2023-01-30T05:59:34.436Z,99136.47
2023-01-30T06:00:36.301Z,99132.91
2023-01-30T06:01:38.218Z,99132.91
2023-01-30T06:02:40.068Z,99137.81
2023-01-30T06:03:42.357Z,99131.72
2023-01-30T06:04:44.094Z,99134.41
2023-01-30T06:05:46.371Z,99138.50
2023-01-30T06:06:50.791Z,99129.03
2023-01-30T06:07:52.509Z,99137.88
2023-01-30T06:08:57.355Z,99140.34
2023-01-30T06:09:59.152Z,99135.13
2023-01-30T06:11:06.717Z,99142.66
2023-01-30T06:12:09.192Z,99126.28
2023-01-30T06:13:11.403Z,99141.50
2023-01-30T06:14:13.291Z,99143.09
2023-01-30T06:15:15.140Z,99143.09
2023-01-30T06:16:18.551Z,99141.50
2023-01-30T06:17:20.299Z,99142.81
2023-01-30T06:18:22.177Z,99146.22
2023-01-30T06:19:24.213Z,99140.72
2023-01-30T06:20:25.978Z,99143.72
2023-01-30T06:21:27.696Z,99148.25
2023-01-30T06:22:29.445Z,99145.78
2023-01-30T06:23:31.567Z,99129.56
2023-01-30T06:24:33.295Z,99142.13
2023-01-30T06:25:35.011Z,99152.41
2023-01-30T06:26:36.747Z,99142.50
2023-01-30T06:27:38.501Z,99150.84
2023-01-30T06:28:40.440Z,99142.59
2023-01-30T06:29:42.159Z,99157.13
2023-01-30T06:30:44.255Z,99155.53
2023-01-30T06:31:46.204Z,99146.06
2023-01-30T06:32:51.060Z,99147.72
2023-01-30T06:33:52.866Z,99151.28
2023-01-30T06:34:54.571Z,99148.31
2023-01-30T06:35:56.287Z,99152.28
2023-01-30T06:36:58.024Z,99153.06
2023-01-30T06:37:59.790Z,99151.97
2023-01-30T06:39:01.539Z,99158.13
2023-01-30T06:40:03.460Z,99161.34
2023-01-30T06:41:05.448Z,99168.41
2023-01-30T06:42:07.449Z,99160.16
2023-01-30T06:43:09.255Z,99154.34
2023-01-30T06:44:11.009Z,99162.03
2023-01-30T06:45:14.903Z,99150.03
2023-01-30T06:46:16.712Z,99159.19
2023-01-30T06:47:18.451Z,99157.41
2023-01-30T06:48:20.159Z,99140.72
2023-01-30T06:49:21.850Z,99149.97
2023-01-30T06:50:26.860Z,99156.22
2023-01-30T06:51:28.652Z,99160.47
2023-01-30T06:52:30.429Z,99160.47
2023-01-30T06:53:32.560Z,99154.44
2023-01-30T06:54:34.326Z,99167.47
2023-01-30T06:55:36.517Z,99155.25
2023-01-30T06:56:38.235Z,99145.44
2023-01-30T06:57:39.950Z,99154.22
2023-01-30T06:58:41.747Z,99162.19
2023-01-30T06:59:43.488Z,99166.28
2023-01-30T07:00:45.183Z,99164.31
2023-01-30T07:01:46.994Z,99143.00
2023-01-30T07:02:48.680Z,99155.03
2023-01-30T07:03:50.390Z,99166.78
2023-01-30T07:04:52.110Z,99148.19
2023-01-30T07:05:54.111Z,99152.94
2023-01-30T07:06:55.878Z,99162.63
2023-01-30T07:07:57.931Z,99169.00
2023-01-30T07:08:59.656Z,99154.66
2023-01-30T07:10:08.305Z,99163.31
2023-01-30T07:11:10.925Z,99156.59
2023-01-30T07:12:12.653Z,99164.84
2023-01-30T07:13:14.463Z,99161.72
2023-01-30T07:14:16.156Z,99163.44
2023-01-30T07:15:18.255Z,99166.72
2023-01-30T07:16:20.274Z,99164.28
2023-01-30T07:17:22.268Z,99159.88
2023-01-30T07:18:24.046Z,99167.22
2023-01-30T07:19:25.749Z,99154.34
2023-01-30T07:20:30.178Z,99168.28
2023-01-30T07:21:31.896Z,99160.91
2023-01-30T07:22:33.655Z,99165.53
2023-01-30T07:23:36.058Z,99163.56
2023-01-30T07:24:38.656Z,99169.09
2023-01-30T07:25:40.345Z,99160.63
2023-01-30T07:26:42.555Z,99159.25
2023-01-30T07:27:49.699Z,99160.22
2023-01-30T07:28:51.467Z,99163.22
2023-01-30T07:29:53.417Z,99166.03
2023-01-30T07:30:55.192Z,99168.63
2023-01-30T07:31:57.049Z,99156.75
2023-01-30T07:33:00.256Z,99158.16
2023-01-30T07:34:02.020Z,99168.63
2023-01-30T07:35:05.912Z,99167.22
2023-01-30T07:36:08.135Z,99169.31
2023-01-30T07:37:10.379Z,99165.97
2023-01-30T07:38:12.106Z,99161.16
2023-01-30T07:39:13.827Z,99166.66
2023-01-30T07:40:16.325Z,99169.25
2023-01-30T07:41:18.045Z,99165.53
2023-01-30T07:42:19.789Z,99165.22
2023-01-30T07:43:21.526Z,99171.56
2023-01-30T07:44:23.284Z,99169.09
2023-01-30T07:45:25.593Z,99167.00
2023-01-30T07:46:28.889Z,99168.50
2023-01-30T07:47:31.178Z,99166.84
2023-01-30T07:48:32.942Z,99163.91
2023-01-30T07:49:34.685Z,99156.94
2023-01-30T07:50:36.546Z,99160.63
2023-01-30T07:51:38.262Z,99155.75
2023-01-30T07:52:39.978Z,99157.78
2023-01-30T07:53:41.934Z,99157.78
2023-01-30T07:54:43.843Z,99152.84
2023-01-30T07:55:45.811Z,99164.47
2023-01-30T07:56:47.527Z,99152.13
2023-01-30T07:57:49.253Z,99165.34
2023-01-30T07:58:51.453Z,99161.94
2023-01-30T07:59:53.220Z,99146.94
2023-01-30T08:00:55.475Z,99150.81
2023-01-30T08:01:58.735Z,99160.81
2023-01-30T08:03:00.748Z,99157.59
2023-01-30T08:04:02.465Z,99153.38
2023-01-30T08:05:06.176Z,99156.47
2023-01-30T08:06:08.147Z,99156.53
2023-01-30T08:07:09.850Z,99165.84
2023-01-30T08:08:11.556Z,99148.50
2023-01-30T08:09:13.386Z,99155.06
2023-01-30T08:10:15.607Z,99156.38
2023-01-30T08:11:18.436Z,99146.56
2023-01-30T08:12:20.145Z,99135.84
2023-01-30T08:13:21.855Z,99149.75
2023-01-30T08:14:23.650Z,99152.38
2023-01-30T08:15:25.390Z,99153.72
2023-01-30T08:16:27.171Z,99151.25
2023-01-30T08:17:28.962Z,99149.31
2023-01-30T08:18:32.067Z,99153.19
2023-01-30T08:19:33.755Z,99153.72
2023-01-30T08:20:36.354Z,99160.03
2023-01-30T08:21:38.094Z,99155.66
2023-01-30T08:22:39.831Z,99147.16
2023-01-30T08:23:41.537Z,99141.75
2023-01-30T08:24:43.642Z,99152.69
2023-01-30T08:25:45.374Z,99153.28
2023-01-30T08:26:49.984Z,99158.97
2023-01-30T08:27:51.910Z,99155.84
2023-01-30T08:28:55.955Z,99143.63
2023-01-30T08:29:58.223Z,99149.25
2023-01-30T08:31:00.088Z,99151.06
2023-01-30T08:32:01.985Z,99153.19
2023-01-30T08:33:03.775Z,99153.44
2023-01-30T08:34:05.817Z,99145.94
2023-01-30T08:35:08.272Z,99146.13
2023-01-30T08:36:10.071Z,99150.16
2023-01-30T08:37:11.971Z,99154.25
2023-01-30T08:38:14.455Z,99150.69
2023-01-30T08:39:16.204Z,99147.78
2023-01-30T08:40:18.288Z,99138.03
2023-01-30T08:41:20.150Z,99142.41
2023-01-30T08:42:21.824Z,99126.88
2023-01-30T08:43:24.125Z,99146.38
2023-01-30T08:44:25.835Z,99137.22
2023-01-30T08:45:28.109Z,99130.72
2023-01-30T08:46:29.871Z,99139.06
2023-01-30T08:47:31.982Z,99131.41
2023-01-30T08:48:47.360Z,99136.47
2023-01-30T08:49:52.954Z,99137.63
2023-01-30T08:50:55.843Z,99145.13
2023-01-30T08:51:57.560Z,99139.81
2023-01-30T08:53:07.825Z,99138.78
2023-01-30T08:54:09.587Z,99135.91
2023-01-30T08:55:11.899Z,99144.44
2023-01-30T08:56:13.650Z,99142.03
2023-01-30T08:57:15.964Z,99143.81
2023-01-30T08:58:17.746Z,99151.66
2023-01-30T08:59:19.564Z,99128.47
2023-01-30T09:00:21.907Z,99126.19
2023-01-30T09:01:23.689Z,99137.34
2023-01-30T09:02:25.451Z,99135.91
2023-01-30T09:03:27.181Z,99131.16
2023-01-30T09:04:32.463Z,99131.00
2023-01-30T09:05:34.211Z,99122.09
2023-01-30T09:06:36.045Z,99127.16
2023-01-30T09:07:37.819Z,99130.44
2023-01-30T09:08:39.593Z,99107.13
2023-01-30T09:09:41.293Z,99109.66
2023-01-30T09:10:43.004Z,99123.44
2023-01-30T09:11:44.779Z,99127.50
2023-01-30T09:12:46.735Z,99120.88
2023-01-30T09:13:49.777Z,99124.03
2023-01-30T09:14:53.903Z,99119.25
2023-01-30T09:15:55.636Z,99107.66
2023-01-30T09:16:57.356Z,99109.88
2023-01-30T09:17:59.150Z,99108.75
2023-01-30T09:19:01.163Z,99100.56
2023-01-30T09:20:02.890Z,99106.97
2023-01-30T09:21:05.760Z,99118.41
2023-01-30T09:22:07.939Z,99110.97
2023-01-30T09:23:09.661Z,99117.50
2023-01-30T09:24:11.404Z,99108.34
2023-01-30T09:25:13.362Z,99096.13
2023-01-30T09:26:15.130Z,99097.31
2023-01-30T09:27:16.907Z,99098.59
2023-01-30T09:28:18.630Z,99101.09
2023-01-30T09:29:20.411Z,99098.97
2023-01-30T09:30:22.388Z,99100.84
2023-01-30T09:31:24.226Z,99094.94
2023-01-30T09:32:25.954Z,99105.53
2023-01-30T09:33:28.056Z,99087.09
2023-01-30T09:34:29.815Z,99077.72
2023-01-30T09:35:31.549Z,99077.91
2023-01-30T09:36:33.524Z,99088.19
2023-01-30T09:37:35.427Z,99082.03
2023-01-30T09:38:37.103Z,99080.69
2023-01-30T09:39:38.821Z,99071.84
2023-01-30T09:41:01.016Z,99071.38
2023-01-30T09:42:05.550Z,99069.13
2023-01-30T09:43:33.577Z,99079.75
2023-01-30T09:45:29.708Z,99079.25
2023-01-30T09:47:08.904Z,99067.06
2023-01-30T09:48:20.606Z,99059.41
2023-01-30T09:49:54.505Z,99068.06
2023-01-30T09:51:08.073Z,99067.59
2023-01-30T09:52:34.963Z,99064.91
2023-01-30T09:54:00.121Z,99064.28
2023-01-30T09:55:23.331Z,99041.09
2023-01-30T09:56:25.287Z,99051.06
2023-01-30T09:57:27.208Z,99058.00
2023-01-30T09:58:57.260Z,99056.72
2023-01-30T10:00:14.411Z,99054.94
2023-01-30T10:01:27.605Z,99058.16
2023-01-30T10:02:35.951Z,99048.53
2023-01-30T10:03:50.260Z,99037.13
2023-01-30T10:05:01.289Z,99044.28
2023-01-30T10:06:15.165Z,99045.16
2023-01-30T10:07:40.162Z,99036.03
2023-01-30T10:08:56.982Z,99036.69
2023-01-30T10:10:35.430Z,99034.97
2023-01-30T10:11:48.033Z,99031.69
2023-01-30T10:13:31.030Z,99019.00
2023-01-30T10:15:03.054Z,99032.72
2023-01-30T10:16:18.847Z,99020.13
2023-01-30T10:17:43.086Z,99022.44
2023-01-30T10:18:57.391Z,99021.94
2023-01-30T10:20:26.756Z,99019.00
2023-01-30T10:21:43.768Z,99019.16
2023-01-30T10:22:45.875Z,99015.72
2023-01-30T10:23:57.538Z,99009.53
2023-01-30T10:25:19.436Z,99009.53
2023-01-30T10:26:25.183Z,99000.72
2023-01-30T10:27:30.798Z,98992.53
2023-01-30T10:28:40.519Z,98990.75
2023-01-30T10:29:49.160Z,99000.56
2023-01-30T10:30:56.555Z,98995.19
2023-01-30T10:32:29.145Z,98993.06
2023-01-30T10:33:35.848Z,98975.97
2023-01-30T10:34:40.709Z,98987.38
2023-01-30T10:35:43.791Z,98979.22
2023-01-30T10:36:54.474Z,98983.31
2023-01-30T10:38:03.076Z,98981.16
2023-01-30T10:39:18.649Z,98971.03
2023-01-30T10:40:34.946Z,98973.78
2023-01-30T10:41:52.125Z,98961.22
2023-01-30T10:43:21.325Z,98967.56
2023-01-30T10:44:23.888Z,98957.13
2023-01-30T10:45:40.013Z,98960.56
2023-01-30T10:46:56.893Z,98964.50
2023-01-30T10:48:19.038Z,98953.03
2023-01-30T10:49:36.715Z,98955.69
2023-01-30T10:50:44.125Z,98952.72
2023-01-30T10:51:55.029Z,98949.75
2023-01-30T10:53:10.986Z,98941.44
2023-01-30T10:54:24.391Z,98931.50
2023-01-30T10:55:37.141Z,98935.75
2023-01-30T10:57:08.153Z,98938.50
2023-01-30T10:58:42.143Z,98938.84
2023-01-30T11:00:08.405Z,98927.91
2023-01-30T11:01:24.371Z,98924.47
2023-01-30T11:02:33.843Z,98923.97
2023-01-30T11:03:41.794Z,98923.31
2023-01-30T11:04:52.112Z,98921.66
2023-01-30T11:06:01.740Z,98910.06
2023-01-30T11:07:04.245Z,98917.09
2023-01-30T11:08:33.442Z,98903.53
2023-01-30T11:09:43.349Z,98908.91
2023-01-30T11:10:45.319Z,98904.63
2023-01-30T11:11:53.599Z,98901.97
2023-01-30T11:13:24.726Z,98896.66
2023-01-30T11:14:27.121Z,98899.06
2023-01-30T11:15:42.761Z,98894.66
2023-01-30T11:16:47.563Z,98901.53
2023-01-30T11:17:49.289Z,98895.81
2023-01-30T11:19:18.668Z,98879.94
2023-01-30T11:20:20.578Z,98889.59
2023-01-30T11:21:42.419Z,98886.97
2023-01-30T11:23:07.638Z,98882.41
2023-01-30T11:24:19.625Z,98884.69
2023-01-30T11:25:23.031Z,98883.72
2023-01-30T11:26:45.573Z,98879.13
2023-01-30T11:28:14.249Z,98870.75
2023-01-30T11:29:32.792Z,98875.81
2023-01-30T11:30:36.240Z,98868.78
2023-01-30T11:31:41.933Z,98859.47
2023-01-30T11:32:46.583Z,98861.75
2023-01-30T11:34:11.793Z,98872.69
2023-01-30T11:35:30.905Z,98852.97
2023-01-30T11:36:34.950Z,98862.91
2023-01-30T11:37:42.393Z,98853.47
2023-01-30T11:39:12.717Z,98842.06
2023-01-30T11:40:17.732Z,98848.06
2023-01-30T11:41:23.348Z,98844.81
2023-01-30T11:42:32.136Z,98843.81
2023-01-30T11:43:35.265Z,98842.84
2023-01-30T11:44:40.391Z,98835.03
2023-01-30T11:45:49.021Z,98830.47
2023-01-30T11:46:50.865Z,98842.34
2023-01-30T11:48:04.851Z,98835.66
2023-01-30T11:49:43.321Z,98823.25
2023-01-30T11:50:49.617Z,98826.56
2023-01-30T11:51:54.564Z,98816.31
2023-01-30T11:53:01.935Z,98830.47
2023-01-30T11:54:15.062Z,98820.19
2023-01-30T11:55:20.065Z,98823.78
2023-01-30T11:56:39.722Z,98829.28
2023-01-30T11:57:45.095Z,98827.03
2023-01-30T11:58:58.154Z,98821.97
2023-01-30T12:00:01.343Z,98801.06
2023-01-30T12:01:05.301Z,98809.72
2023-01-30T12:02:31.927Z,98819.34
2023-01-30T12:03:34.626Z,98809.88
2023-01-30T12:04:40.426Z,98797.53
2023-01-30T12:05:46.358Z,98801.78
2023-01-30T12:07:05.869Z,98807.97
2023-01-30T12:08:39.407Z,98794.94
2023-01-30T12:09:43.026Z,98801.06
2023-01-30T12:10:46.270Z,98797.78
2023-01-30T12:11:47.962Z,98780.97
2023-01-30T12:12:53.137Z,98793.53
2023-01-30T12:14:28.883Z,98790.94
2023-01-30T12:15:35.385Z,98794.88
2023-01-30T12:17:03.029Z,98780.69
2023-01-30T12:18:13.782Z,98783.81
2023-01-30T12:19:30.456Z,98783.31
2023-01-30T12:21:01.593Z,98779.72
2023-01-30T12:22:28.559Z,98776.94
2023-01-30T12:23:46.385Z,98774.97
2023-01-30T12:25:01.517Z,98772.03
2023-01-30T12:26:26.151Z,98769.47
2023-01-30T12:27:54.171Z,98772.25
2023-01-30T12:29:14.579Z,98763.53
2023-01-30T12:30:25.140Z,98760.59
2023-01-30T12:31:36.019Z,98770.41
2023-01-30T12:32:37.786Z,98733.75
2023-01-30T12:33:39.782Z,98771.44
2023-01-30T12:34:45.556Z,98763.75
2023-01-30T12:35:56.188Z,98765.06
2023-01-30T12:37:25.385Z,98760.78
2023-01-30T12:38:30.176Z,98771.38
2023-01-30T12:39:56.421Z,98765.28
2023-01-30T12:40:58.068Z,98767.06
2023-01-30T12:42:25.950Z,98755.72
2023-01-30T12:44:06.210Z,98764.72
2023-01-30T12:45:27.160Z,98751.97
2023-01-30T12:46:37.647Z,98757.53
2023-01-30T12:47:54.101Z,98753.63
2023-01-30T12:49:20.054Z,98755.97
2023-01-30T12:50:33.868Z,98749.66
2023-01-30T12:51:41.363Z,98753.41
2023-01-30T12:53:04.898Z,98748.44
2023-01-30T12:54:31.751Z,98750.41
2023-01-30T12:55:41.443Z,98742.94
2023-01-30T12:57:37.649Z,98742.88
2023-01-30T12:58:45.882Z,98730.53
2023-01-30T13:00:06.113Z,98741.50
2023-01-30T13:01:25.166Z,98720.81
2023-01-30T13:02:27.198Z,98733.38